createdAt,value
2022-12-08T00:00:17.681Z,25.73
2022-12-08T00:05:38.477Z,31.90
2022-12-08T00:10:49.269Z,24.13
2022-12-08T00:15:52.358Z,27.90
2022-12-08T00:20:58.933Z,24.53
2022-12-08T00:26:05.161Z,25.43
2022-12-08T00:31:09.573Z,27.23
2022-12-08T00:36:14.385Z,33.73
2022-12-08T00:41:43.840Z,37.50
2022-12-08T00:46:47.494Z,25.00
2022-12-08T00:51:50.460Z,21.80
2022-12-08T00:56:53.108Z,17.13
2022-12-08T01:01:55.575Z,15.90
2022-12-08T01:06:57.895Z,20.73
2022-12-08T01:12:00.452Z,19.80
2022-12-08T01:17:03.028Z,24.47
2022-12-08T01:22:05.474Z,24.97
2022-12-08T01:27:07.838Z,21.80
2022-12-08T01:32:10.235Z,19.50
2022-12-08T01:37:12.702Z,17.57
2022-12-08T01:42:23.011Z,20.27
2022-12-08T01:47:30.207Z,34.67
2022-12-08T01:52:38.872Z,27.30
2022-12-08T01:57:48.772Z,24.90
2022-12-08T02:02:59.201Z,16.70
2022-12-08T02:08:06.874Z,15.50
2022-12-08T02:13:13.462Z,18.27
2022-12-08T02:19:28.648Z,20.53
2022-12-08T02:24:29.436Z,19.27
2022-12-08T02:30:08.956Z,14.90
2022-12-08T02:35:32.593Z,16.23
2022-12-08T02:40:49.773Z,19.90
2022-12-08T02:45:57.954Z,18.80
2022-12-08T02:51:00.514Z,19.97
2022-12-08T02:56:05.694Z,29.23
2022-12-08T03:01:34.224Z,37.53
2022-12-08T03:07:15.854Z,29.13
2022-12-08T03:12:26.590Z,32.53
2022-12-08T03:17:31.298Z,34.57
2022-12-08T03:22:34.093Z,25.17
2022-12-08T03:27:36.803Z,25.93
2022-12-08T03:32:47.550Z,21.83
2022-12-08T03:37:50.021Z,15.07
2022-12-08T03:42:52.631Z,15.70
2022-12-08T03:47:55.137Z,20.40
2022-12-08T03:52:57.525Z,19.70
2022-12-08T03:57:59.913Z,23.53
2022-12-08T04:03:04.624Z,28.00
2022-12-08T04:08:07.279Z,27.00
2022-12-08T04:13:09.768Z,25.87
2022-12-08T04:18:12.260Z,29.03
2022-12-08T04:23:14.759Z,30.50
2022-12-08T04:28:17.465Z,25.07
2022-12-08T04:33:19.917Z,27.73
2022-12-08T04:38:22.762Z,24.93
2022-12-08T04:43:25.200Z,30.63
2022-12-08T04:48:27.659Z,31.50
2022-12-08T04:53:30.170Z,34.80
2022-12-08T04:58:32.551Z,44.97
2022-12-08T05:03:35.049Z,51.83
2022-12-08T05:08:37.444Z,63.80
2022-12-08T05:13:40.117Z,62.43
2022-12-08T05:18:43.385Z,63.53
2022-12-08T05:23:45.783Z,70.00
2022-12-08T05:28:48.258Z,69.80
2022-12-08T05:33:51.696Z,65.27
2022-12-08T05:38:57.509Z,70.37
2022-12-08T05:44:00.164Z,78.83
2022-12-08T05:49:03.787Z,79.43
2022-12-08T05:54:12.113Z,82.97
2022-12-08T05:59:14.558Z,79.80
2022-12-08T06:04:16.936Z,84.20
2022-12-08T06:09:19.350Z,86.03
2022-12-08T06:14:21.778Z,84.70
2022-12-08T06:19:24.218Z,96.57
2022-12-08T06:24:26.696Z,95.23
2022-12-08T06:29:29.037Z,70.77
2022-12-08T06:34:31.436Z,64.20
2022-12-08T06:39:33.820Z,70.93
2022-12-08T06:44:36.653Z,72.93
2022-12-08T06:49:39.043Z,60.33
2022-12-08T06:54:41.434Z,47.90
2022-12-08T06:59:43.975Z,52.70
2022-12-08T07:04:46.304Z,33.63
2022-12-08T07:09:48.757Z,28.13
2022-12-08T07:14:51.218Z,26.70
2022-12-08T07:19:53.644Z,32.30
2022-12-08T07:24:56.028Z,26.63
2022-12-08T07:29:58.421Z,31.43
2022-12-08T07:35:00.811Z,25.97
2022-12-08T07:40:04.798Z,31.60
2022-12-08T07:45:08.750Z,34.33
2022-12-08T07:50:11.308Z,39.07
2022-12-08T07:55:13.826Z,35.83
2022-12-08T08:00:16.731Z,36.60
2022-12-08T08:05:23.292Z,45.50
2022-12-08T08:10:26.077Z,47.13
2022-12-08T08:15:29.017Z,53.83
2022-12-08T08:20:31.735Z,52.37
2022-12-08T08:25:34.155Z,62.97
2022-12-08T08:30:36.522Z,57.63
2022-12-08T08:35:39.785Z,48.73
2022-12-08T08:40:42.225Z,44.63
2022-12-08T08:45:44.917Z,39.53
2022-12-08T08:50:47.314Z,46.20
2022-12-08T08:55:50.489Z,61.33
2022-12-08T09:00:53.656Z,63.07
2022-12-08T09:05:57.187Z,61.17
2022-12-08T09:11:00.640Z,52.97
2022-12-08T09:16:07.058Z,52.13
2022-12-08T09:21:20.386Z,62.40
2022-12-08T09:26:23.410Z,61.47
2022-12-08T09:31:27.481Z,56.47
2022-12-08T09:36:31.577Z,49.93
2022-12-08T09:41:43.325Z,47.17
2022-12-08T09:46:52.897Z,42.87
2022-12-08T09:51:57.214Z,51.03
2022-12-08T09:57:07.569Z,44.17
2022-12-08T10:02:23.538Z,59.97
2022-12-08T10:07:47.960Z,53.60
2022-12-08T10:13:03.540Z,60.20
2022-12-08T10:18:17.024Z,104.10
2022-12-08T10:23:33.332Z,61.53
2022-12-08T10:28:39.983Z,87.77
2022-12-08T10:33:50.701Z,78.40
2022-12-08T10:38:53.073Z,68.10
2022-12-08T10:44:00.755Z,52.33
2022-12-08T10:49:06.100Z,70.60
2022-12-08T10:54:29.014Z,59.53
2022-12-08T10:59:33.812Z,65.37
2022-12-08T11:04:38.260Z,62.47
2022-12-08T11:09:48.984Z,71.23
2022-12-08T11:15:10.717Z,82.40
2022-12-08T11:20:22.811Z,60.27
2022-12-08T11:25:27.838Z,53.33
2022-12-08T11:30:43.803Z,45.50
2022-12-08T11:35:50.877Z,40.17
2022-12-08T11:41:04.940Z,39.67
2022-12-08T11:46:39.522Z,33.70
2022-12-08T11:51:53.055Z,33.87
2022-12-08T11:57:00.864Z,38.67
2022-12-08T12:02:05.398Z,33.97
2022-12-08T12:07:32.441Z,36.50
2022-12-08T12:12:49.922Z,42.33
2022-12-08T12:18:16.303Z,35.77
2022-12-08T12:23:24.439Z,30.03
2022-12-08T12:28:31.406Z,40.17
2022-12-08T12:33:35.206Z,35.13
2022-12-08T12:39:03.491Z,35.73
2022-12-08T12:44:14.962Z,39.07
2022-12-08T12:49:46.528Z,37.43
2022-12-08T12:54:52.033Z,67.37
2022-12-08T12:59:55.765Z,187.27
2022-12-08T13:05:18.840Z,85.13
2022-12-08T13:10:31.892Z,72.53
2022-12-08T13:15:41.399Z,77.80
2022-12-08T13:20:51.915Z,144.97
2022-12-08T13:26:11.736Z,148.33
2022-12-08T13:31:50.100Z,68.57
2022-12-08T13:37:11.780Z,81.20
2022-12-08T13:42:21.502Z,69.53
2022-12-08T13:47:34.810Z,68.50
2022-12-08T13:58:19.940Z,72.60
2022-12-08T14:03:22.481Z,66.73
2022-12-08T14:13:56.707Z,71.00
2022-12-08T14:19:20.365Z,165.63
2022-12-08T14:24:27.756Z,143.60
2022-12-08T14:29:41.480Z,156.27
2022-12-08T14:34:43.945Z,202.47
2022-12-08T14:39:47.045Z,230.47
2022-12-08T14:45:02.352Z,127.77
2022-12-08T14:50:26.023Z,91.63
2022-12-08T14:55:37.253Z,84.87
2022-12-08T15:00:56.879Z,80.60
2022-12-08T15:06:04.698Z,81.23
2022-12-08T15:11:20.707Z,89.17
2022-12-08T15:16:41.712Z,141.03
2022-12-08T15:21:46.029Z,164.13
2022-12-08T15:26:50.974Z,123.27
2022-12-08T15:31:56.917Z,83.93
2022-12-08T15:37:03.085Z,65.30
2022-12-08T15:42:11.976Z,67.37
2022-12-08T15:47:23.800Z,68.67
2022-12-08T15:52:26.230Z,77.93
2022-12-08T16:08:45.822Z,94.57
2022-12-08T16:13:58.345Z,78.70
2022-12-08T16:19:05.550Z,99.67
2022-12-08T16:24:09.492Z,120.33
2022-12-08T16:29:19.477Z,140.30
2022-12-08T16:34:21.865Z,88.27
2022-12-08T16:39:24.245Z,108.43
2022-12-08T16:44:26.679Z,159.07
2022-12-08T16:49:29.054Z,64.40
2022-12-08T16:54:31.424Z,55.43
2022-12-08T16:59:34.354Z,72.40
2022-12-08T17:04:36.809Z,50.57
2022-12-08T17:09:39.229Z,48.40
2022-12-08T17:14:41.596Z,60.17
2022-12-08T17:19:44.119Z,45.10
2022-12-08T17:24:46.505Z,56.80
2022-12-08T17:29:49.015Z,60.43
2022-12-08T17:34:51.467Z,76.57
2022-12-08T17:39:53.888Z,70.27
2022-12-08T17:44:56.313Z,68.47
2022-12-08T17:49:58.705Z,80.03
2022-12-08T17:55:01.122Z,67.57
2022-12-08T18:00:05.907Z,60.60
2022-12-08T18:05:14.167Z,51.43
2022-12-08T18:10:17.684Z,51.70
2022-12-08T18:15:20.509Z,51.87
2022-12-08T18:20:22.938Z,54.77
2022-12-08T18:25:25.562Z,59.50
2022-12-08T18:30:28.155Z,185.93
2022-12-08T18:35:30.794Z,152.60
2022-12-08T18:40:33.356Z,74.10
2022-12-08T18:45:38.759Z,62.27
2022-12-08T18:50:44.786Z,67.27
2022-12-08T18:55:47.350Z,76.00
2022-12-08T19:00:50.109Z,67.30
2022-12-08T19:06:03.095Z,78.20
2022-12-08T19:11:05.696Z,67.07
2022-12-08T19:16:08.242Z,94.37
2022-12-08T19:21:12.390Z,71.80
2022-12-08T19:26:14.854Z,212.27
2022-12-08T19:31:17.272Z,120.20
2022-12-08T19:36:22.518Z,94.57
2022-12-08T19:41:43.630Z,108.57
2022-12-08T19:46:46.082Z,111.87
2022-12-08T19:51:48.531Z,117.33
2022-12-08T19:56:50.966Z,130.97
2022-12-08T20:01:56.288Z,87.27
2022-12-08T20:06:58.857Z,81.27
2022-12-08T20:12:01.312Z,58.97
2022-12-08T20:17:03.652Z,55.47
2022-12-08T20:22:06.108Z,52.83
2022-12-08T20:27:08.561Z,59.10
2022-12-08T20:32:11.010Z,83.77
2022-12-08T20:37:13.895Z,111.73
2022-12-08T20:42:16.369Z,78.27
2022-12-08T20:47:18.891Z,60.77
2022-12-08T20:52:21.365Z,60.40
2022-12-08T20:57:23.903Z,79.33
2022-12-08T21:02:27.695Z,87.30
2022-12-08T21:07:30.531Z,69.20
2022-12-08T21:12:33.404Z,62.20
2022-12-08T21:17:35.960Z,62.73
2022-12-08T21:22:39.989Z,60.60
2022-12-08T21:27:42.666Z,63.00
2022-12-08T21:32:45.376Z,55.03
2022-12-08T21:37:47.838Z,59.93
2022-12-08T21:42:53.059Z,66.77
2022-12-08T21:47:55.871Z,71.50
2022-12-08T21:52:58.382Z,110.83
2022-12-08T21:58:02.195Z,75.77
2022-12-08T22:03:05.532Z,90.73
2022-12-08T22:08:11.279Z,93.97
2022-12-08T22:13:13.920Z,84.57
2022-12-08T22:18:16.504Z,92.53
2022-12-08T22:23:22.587Z,103.80
2022-12-08T22:28:26.479Z,67.70
2022-12-08T22:33:29.965Z,54.80
2022-12-08T22:38:33.429Z,54.30
2022-12-08T22:43:37.351Z,57.40
2022-12-08T22:48:40.006Z,60.97
2022-12-08T22:53:42.677Z,68.00
2022-12-08T22:58:45.534Z,53.23
2022-12-08T23:03:48.223Z,57.17
2022-12-08T23:08:51.593Z,64.57
2022-12-08T23:13:56.298Z,60.67
2022-12-08T23:18:59.164Z,59.63
2022-12-08T23:24:02.123Z,71.93
2022-12-08T23:30:01.264Z,86.10
2022-12-08T23:35:24.550Z,180.73
2022-12-08T23:40:27.518Z,78.20
2022-12-08T23:45:30.371Z,84.47
2022-12-08T23:50:33.430Z,72.60
2022-12-08T23:55:35.939Z,73.07
